Time;durP1;ratioP1;P1;durP2;ratioP2;P2;SDS_P1;SDS_P2;PMS_P1;PMS_P2;Temp;Humidity;BMP_temperature;BMP_pressure;BME280_temperature;BME280_humidity;BME280_pressure;Samples;Min_cycle;Max_cycle;Signal;HPM_P1;HPM_P2
2022/06/03 00:00:09;;;;;;;;;7.00;7.00;;;;;18.15;46.19;99405.50;6181936;28;96578;-68
2022/06/03 00:03:38;;;;;;;;;7.00;6.25;;;;;18.08;46.14;99402.16;6266561;27;97915;-68
2022/06/03 00:07:03;;;;;;;;;7.00;6.00;;;;;17.93;46.55;99395.75;6187776;27;96699;-69
2022/06/03 00:10:27;;;;;;;;;7.20;6.80;;;;;17.87;46.67;99404.94;6268885;27;97516;-69
2022/06/03 00:13:51;;;;;;;;;6.00;6.00;;;;;17.79;46.79;99414.38;6184494;27;97492;-69
2022/06/03 00:17:08;;;;;;;;;7.00;7.00;;;;;17.75;46.96;99413.25;6183380;28;96890;-68
2022/06/03 00:20:29;;;;;;;;;7.60;7.00;;;;;17.58;47.09;99398.84;6188848;27;97173;-68
2022/06/03 00:23:58;;;;;;;;;7.00;6.00;;;;;17.63;47.09;99405.22;6213324;27;97360;-69
2022/06/03 00:27:17;;;;;;;;;6.00;6.00;;;;;17.63;47.03;99402.50;6181184;28;97273;-69
2022/06/03 00:30:48;;;;;;;;;7.00;6.25;;;;;17.53;47.39;99401.53;6165813;28;96653;-69
2022/06/03 00:34:08;;;;;;;;;7.00;6.00;;;;;17.53;47.13;99405.06;6182969;28;97474;-69
2022/06/03 00:37:26;;;;;;;;;7.00;6.40;;;;;17.52;47.23;99397.13;6233281;27;96658;-68
2022/06/03 00:40:43;;;;;;;;;6.80;5.80;;;;;17.49;47.33;99393.03;6183028;28;97560;-69
2022/06/03 00:44:03;;;;;;;;;5.60;5.00;;;;;17.45;47.19;99394.59;6173473;28;97504;-69
2022/06/03 00:47:22;;;;;;;;;7.00;6.50;;;;;17.42;47.30;99394.28;6183594;28;97395;-70
2022/06/03 00:50:52;;;;;;;;;7.00;7.00;;;;;17.32;47.88;99393.09;6180914;28;96297;-69
2022/06/03 00:54:40;;;;;;;;;6.40;6.40;;;;;17.29;47.53;99384.59;6219353;27;99484;-69
2022/06/03 00:58:15;;;;;;;;;5.80;5.20;;;;;17.14;48.20;99382.50;6191159;27;96700;-69
2022/06/03 01:01:27;;;;;;;;;7.00;7.00;;;;;17.13;47.69;99385.47;6195202;27;97371;-69
2022/06/03 01:04:56;;;;;;;;;6.40;6.40;;;;;17.14;47.82;99381.69;6234776;27;99041;-69
2022/06/03 01:08:11;;;;;;;;;7.60;6.40;;;;;17.13;48.05;99394.47;6260107;27;97999;-69
2022/06/03 01:11:33;;;;;;;;;8.00;7.00;;;;;17.10;48.15;99385.97;6192284;27;98345;-69
2022/06/03 01:14:51;;;;;;;;;6.60;6.60;;;;;17.10;48.20;99399.59;6200762;27;98855;-70
2022/06/03 01:18:19;;;;;;;;;7.00;6.00;;;;;16.98;47.96;99383.34;6226654;27;97294;-69
2022/06/03 01:21:36;;;;;;;;;7.00;6.00;;;;;17.05;47.92;99383.19;6232235;27;98419;-69
2022/06/03 01:25:22;;;;;;;;;7.00;7.00;;;;;17.07;47.70;99392.75;6186372;27;97521;-70
2022/06/03 01:28:55;;;;;;;;;8.00;7.00;;;;;16.96;48.03;99390.16;6277743;27;96664;-69
2022/06/03 01:32:39;;;;;;;;;6.00;5.00;;;;;16.93;48.10;99388.72;6193336;27;97524;-69
2022/06/03 01:36:06;;;;;;;;;6.60;5.20;;;;;16.92;48.12;99394.41;6252605;27;96828;-69
2022/06/03 01:39:42;;;;;;;;;6.00;6.00;;;;;16.89;48.17;99398.50;6186475;28;96706;-68
2022/06/03 01:43:13;;;;;;;;;5.33;5.33;;;;;16.87;48.14;99404.16;6181144;28;97416;-69
2022/06/03 01:46:28;;;;;;;;;7.60;7.00;;;;;16.88;48.23;99402.28;6250863;27;99691;-69
2022/06/03 01:49:50;;;;;;;;;6.00;6.00;;;;;16.83;48.16;99404.94;6180713;28;96450;-69
2022/06/03 01:53:16;;;;;;;;;5.00;5.00;;;;;16.82;48.35;99395.09;6260020;27;97411;-68
2022/06/03 01:56:44;;;;;;;;;6.00;5.40;;;;;16.83;48.19;99402.19;6186600;27;96783;-69
2022/06/03 02:00:13;;;;;;;;;8.00;7.00;;;;;16.81;48.43;99407.09;6251708;27;100327;-69
2022/06/03 02:04:01;;;;;;;;;8.00;8.00;;;;;16.79;48.20;99412.78;6237023;27;98390;-70
2022/06/03 02:07:32;;;;;;;;;7.00;7.00;;;;;16.70;48.35;99413.44;6252937;27;98958;-69
2022/06/03 02:11:09;;;;;;;;;7.50;7.00;;;;;16.68;48.45;99412.84;6235351;27;97048;-69
2022/06/03 02:14:46;;;;;;;;;7.00;7.00;;;;;16.60;48.80;99416.84;6186109;28;97414;-69
2022/06/03 02:18:23;;;;;;;;;6.60;6.00;;;;;16.50;48.83;99415.81;6203455;27;97529;-69
2022/06/03 02:21:53;;;;;;;;;9.00;7.40;;;;;16.44;48.98;99432.06;6181173;27;96318;-69
2022/06/03 02:25:25;;;;;;;;;7.20;6.80;;;;;15.81;49.41;99330.84;6182794;28;96408;-70
2022/06/03 02:33:08;;;;;;;;;7.00;6.00;;;;;16.28;49.53;99429.31;6251738;27;96939;-68
2022/06/03 02:36:48;;;;;;;;;7.00;7.00;;;;;16.24;49.80;99431.69;6261845;27;97640;-69
2022/06/03 02:40:11;;;;;;;;;7.00;6.50;;;;;16.20;49.75;99424.28;6275666;27;97017;-69
2022/06/03 02:43:31;;;;;;;;;5.40;5.00;;;;;16.19;49.74;99425.34;6262576;27;97317;-69
2022/06/03 02:47:14;;;;;;;;;8.00;8.00;;;;;16.21;49.85;99431.38;6279534;27;97162;-69
2022/06/03 02:50:40;;;;;;;;;7.00;6.40;;;;;16.21;49.70;99428.66;6242411;27;96887;-68
2022/06/03 02:54:26;;;;;;;;;7.00;6.00;;;;;16.19;49.34;99434.31;6259031;27;96413;-69
2022/06/03 02:57:50;;;;;;;;;7.00;6.00;;;;;16.08;49.71;99437.13;6257988;27;97453;-70
2022/06/03 03:01:12;;;;;;;;;7.00;7.00;;;;;16.06;49.54;99437.34;6259598;27;97800;-69
2022/06/03 03:04:31;;;;;;;;;6.00;6.00;;;;;16.14;49.87;99436.13;6263013;27;97460;-70
2022/06/03 03:07:56;;;;;;;;;8.60;8.00;;;;;16.20;49.55;99443.31;6264139;27;97775;-68
2022/06/03 03:11:17;;;;;;;;;6.00;6.00;;;;;16.26;49.45;99448.59;6237863;27;97081;-69
2022/06/03 03:14:59;;;;;;;;;6.60;6.00;;;;;16.32;49.42;99444.09;6263950;27;97130;-69
2022/06/03 03:18:32;;;;;;;;;7.00;6.00;;;;;16.39;49.24;99447.47;6252534;27;97247;-69
2022/06/03 03:21:52;;;;;;;;;7.00;7.00;;;;;16.43;49.37;99446.72;6258765;27;98527;-69
2022/06/03 03:25:18;;;;;;;;;8.00;7.00;;;;;16.51;49.35;99441.97;6261647;27;96623;-70
2022/06/03 03:28:54;;;;;;;;;8.00;8.00;;;;;16.57;49.54;99452.66;6264085;27;97744;-70
2022/06/03 03:32:24;;;;;;;;;8.20;8.20;;;;;16.60;49.66;99446.78;6244345;27;97387;-69
2022/06/03 03:36:06;;;;;;;;;7.33;7.00;;;;;16.66;49.67;99442.25;6260820;27;99531;-69
2022/06/03 03:39:36;;;;;;;;;13.00;13.00;;;;;16.74;49.47;99441.81;6276608;27;96385;-69
2022/06/03 03:43:15;;;;;;;;;8.00;8.00;;;;;16.82;49.46;99449.56;6252231;27;96827;-70
2022/06/03 03:47:05;;;;;;;;;8.80;8.00;;;;;16.94;49.66;99452.22;6259826;27;97753;-68
2022/06/03 03:50:49;;;;;;;;;9.00;8.00;;;;;17.12;49.65;99457.38;6253857;27;97462;-70
2022/06/03 03:54:33;;;;;;;;;8.00;8.00;;;;;17.30;49.87;99462.53;6284065;27;96974;-68
2022/06/03 03:58:08;;;;;;;;;10.75;10.75;;;;;17.50;49.54;99456.53;6257804;27;96917;-70
2022/06/03 04:01:42;;;;;;;;;12.00;11.40;;;;;17.70;49.55;99460.38;6288467;27;96715;-70
2022/06/03 04:05:10;;;;;;;;;14.00;12.40;;;;;17.90;49.28;99462.53;6272669;27;97282;-71
2022/06/03 04:08:57;;;;;;;;;12.40;12.40;;;;;18.12;48.80;99462.50;6260415;27;96473;-71
2022/06/03 04:12:39;;;;;;;;;13.80;12.00;;;;;18.23;48.00;99464.25;6256432;27;97629;-70
2022/06/03 04:16:10;;;;;;;;;13.60;12.60;;;;;18.49;47.29;99468.06;6249018;27;97758;-70
2022/06/03 04:19:43;;;;;;;;;12.80;12.00;;;;;18.64;46.71;99473.69;6260818;27;97418;-70
2022/06/03 04:23:15;;;;;;;;;11.00;11.00;;;;;18.81;46.46;99477.13;6257932;27;97926;-69
2022/06/03 04:26:58;;;;;;;;;11.50;10.50;;;;;18.91;45.95;99465.44;6260017;27;96842;-70
2022/06/03 04:30:17;;;;;;;;;9.80;9.20;;;;;19.20;45.66;99480.41;6245101;27;96789;-71
2022/06/03 04:33:52;;;;;;;;;10.00;10.00;;;;;19.39;44.87;99478.06;6286226;27;96559;-70
2022/06/03 04:37:32;;;;;;;;;11.20;11.00;;;;;19.56;44.65;99480.63;6285116;27;97799;-69
2022/06/03 04:41:22;;;;;;;;;11.25;10.25;;;;;19.70;44.26;99485.34;6285146;27;96904;-69
2022/06/03 04:45:13;;;;;;;;;13.75;11.00;;;;;19.85;43.81;99487.34;6297905;27;98596;-70
2022/06/03 04:48:56;;;;;;;;;12.20;11.20;;;;;19.94;43.64;99472.03;6283502;27;97733;-70
2022/06/03 04:52:51;;;;;;;;;9.00;9.00;;;;;20.09;42.95;99474.84;6275222;27;97460;-70
2022/06/03 04:56:24;;;;;;;;;10.80;10.00;;;;;20.21;43.10;99477.34;6282557;27;97456;-70
2022/06/03 05:00:09;;;;;;;;;11.00;10.00;;;;;20.43;43.18;99477.16;6283025;27;99553;-69
2022/06/03 05:03:42;;;;;;;;;9.80;9.00;;;;;20.66;43.02;99473.88;6284665;27;98420;-73
2022/06/03 05:07:37;;;;;;;;;13.00;11.00;;;;;20.89;43.13;99470.59;6288554;27;97101;-71
2022/06/03 05:11:32;;;;;;;;;9.75;9.75;;;;;21.12;42.76;99480.16;6285126;27;97497;-70
2022/06/03 05:15:34;;;;;;;;;11.00;10.40;;;;;21.35;42.21;99492.50;6266923;27;97393;-70
2022/06/03 05:19:21;;;;;;;;;11.00;11.00;;;;;21.49;40.97;99497.16;6304925;27;97440;-71
2022/06/03 05:22:52;;;;;;;;;11.00;11.00;;;;;21.55;40.58;99492.47;6254436;27;97742;-70
2022/06/03 05:26:21;;;;;;;;;10.00;9.50;;;;;21.65;40.43;99495.16;6246959;27;97518;-71
2022/06/03 05:29:57;;;;;;;;;10.00;8.00;;;;;21.76;40.26;99501.44;6250979;27;98206;-72
2022/06/03 05:33:24;;;;;;;;;9.50;9.00;;;;;21.94;40.23;99501.66;6180188;28;96596;-70
2022/06/03 05:37:00;;;;;;;;;10.20;9.20;;;;;22.11;40.42;99500.50;6181784;28;97132;-70
2022/06/03 05:40:34;;;;;;;;;11.00;9.00;;;;;22.21;39.74;99493.03;6254661;27;98433;-70
2022/06/03 05:43:53;;;;;;;;;9.25;9.00;;;;;22.36;39.73;99492.94;6249636;27;97743;-70
2022/06/03 05:47:03;;;;;;;;;10.00;9.00;;;;;22.48;39.57;99489.84;6186871;28;96887;-70
2022/06/03 05:50:14;;;;;;;;;8.00;8.00;;;;;22.58;38.62;99502.72;6254477;27;96666;-70
2022/06/03 05:53:34;;;;;;;;;10.60;10.00;;;;;22.74;39.42;99504.25;6285504;27;96695;-71
2022/06/03 05:56:51;;;;;;;;;7.00;7.00;;;;;22.85;38.50;99486.59;6186715;27;97461;-70
2022/06/03 06:00:19;;;;;;;;;9.40;9.00;;;;;23.03;38.48;99501.53;6184520;28;96700;-71
2022/06/03 06:03:45;;;;;;;;;9.00;8.20;;;;;23.14;38.24;99501.19;6184662;28;96976;-71
2022/06/03 06:07:01;;;;;;;;;8.50;8.50;;;;;23.31;38.47;99501.56;6185884;28;97582;-70
2022/06/03 06:10:15;;;;;;;;;8.00;8.00;;;;;23.41;38.34;99483.31;6180140;27;98812;-71
2022/06/03 06:13:49;;;;;;;;;6.60;6.60;;;;;23.60;37.90;99500.75;6186050;28;97638;-70
2022/06/03 06:16:57;;;;;;;;;9.00;9.00;;;;;23.64;37.69;99490.81;6185862;27;97453;-71
2022/06/03 06:20:13;;;;;;;;;9.00;9.00;;;;;23.85;37.95;99494.94;6184844;28;97385;-71
2022/06/03 06:23:19;;;;;;;;;7.00;7.00;;;;;23.91;37.88;99488.25;6179481;28;97229;-71
2022/06/03 06:27:06;;;;;;;;;9.00;9.00;;;;;24.02;38.01;99484.28;6302966;27;97251;-70
2022/06/03 06:30:35;;;;;;;;;6.75;6.75;;;;;23.91;37.20;99488.25;6278178;27;96546;-70
2022/06/03 06:34:07;;;;;;;;;8.00;7.20;;;;;23.63;37.26;99458.88;6282792;27;99564;-71
2022/06/03 06:37:48;;;;;;;;;8.40;8.00;;;;;24.01;37.77;99492.81;6266121;27;99627;-71
2022/06/03 06:41:06;;;;;;;;;9.00;8.00;;;;;24.22;37.66;99496.16;6287638;27;97789;-71
2022/06/03 06:44:14;;;;;;;;;8.00;8.00;;;;;24.37;37.32;99490.44;6289093;27;97900;-72
2022/06/03 06:47:27;;;;;;;;;8.00;8.00;;;;;24.37;37.51;99493.19;6290159;27;97512;-70
2022/06/03 06:50:46;;;;;;;;;8.00;7.00;;;;;24.20;36.81;99473.59;6291205;27;97127;-71
2022/06/03 06:53:55;;;;;;;;;9.00;8.00;;;;;24.40;37.26;99487.06;6289737;27;96606;-71
2022/06/03 06:57:04;;;;;;;;;9.00;9.00;;;;;24.59;36.38;99483.19;6275441;27;97424;-71
2022/06/03 07:00:18;;;;;;;;;8.00;8.00;;;;;24.87;37.25;99486.13;6288281;27;97447;-70
2022/06/03 07:03:41;;;;;;;;;6.80;6.80;;;;;24.99;37.15;99481.75;6288834;27;97866;-70
2022/06/03 07:06:52;;;;;;;;;9.00;8.00;;;;;25.24;36.65;99482.44;6270761;27;99817;-70
2022/06/03 07:10:02;;;;;;;;;7.00;7.00;;;;;25.53;36.33;99480.22;6288316;27;97314;-70
2022/06/03 07:13:13;;;;;;;;;7.40;7.40;;;;;25.56;33.92;99479.63;6289756;27;97410;-71
2022/06/03 07:19:53;;;;;;;;;8.00;8.00;;;;;25.88;35.51;99474.03;6289594;27;96960;-71
2022/06/03 07:23:06;;;;;;;;;8.80;8.80;;;;;26.12;34.89;99467.44;6288864;27;97638;-72
2022/06/03 07:26:18;;;;;;;;;6.60;6.60;;;;;26.30;34.06;99466.50;6269788;27;97000;-72
2022/06/03 07:29:27;;;;;;;;;6.60;6.00;;;;;26.47;33.88;99472.22;6288894;27;96468;-70
2022/06/03 07:32:39;;;;;;;;;7.00;7.00;;;;;26.66;33.52;99460.97;6288805;27;97487;-72
2022/06/03 07:35:50;;;;;;;;;7.00;7.00;;;;;26.59;32.89;99468.88;6322426;27;96921;-69
2022/06/03 07:38:57;;;;;;;;;7.80;6.80;;;;;26.70;33.33;99471.09;6287538;27;97436;-71
2022/06/03 07:42:07;;;;;;;;;6.00;6.00;;;;;26.88;31.85;99476.78;6287285;27;96940;-71
2022/06/03 07:45:27;;;;;;;;;6.75;6.50;;;;;27.00;31.04;99465.97;6287806;27;98038;-71
2022/06/03 07:48:38;;;;;;;;;5.00;5.00;;;;;27.21;30.94;99467.06;6287550;27;97631;-71
2022/06/03 07:51:47;;;;;;;;;6.00;6.00;;;;;27.28;31.08;99472.97;6287317;27;96578;-71
2022/06/03 07:54:55;;;;;;;;;5.25;5.25;;;;;27.33;30.33;99467.28;6287593;27;97960;-72
2022/06/03 07:58:06;;;;;;;;;6.00;6.00;;;;;26.97;30.06;99436.97;6286834;27;96794;-72
2022/06/03 08:01:22;;;;;;;;;7.00;6.00;;;;;27.13;30.44;99440.97;6286950;27;96564;-71
2022/06/03 08:04:34;;;;;;;;;4.60;4.60;;;;;27.29;29.95;99468.25;6269571;27;98480;-72
2022/06/03 08:11:08;;;;;;;;;6.00;6.00;;;;;27.29;31.61;99452.44;6288384;27;97632;-70
2022/06/03 08:14:11;;;;;;;;;6.00;6.00;;;;;27.51;30.70;99457.16;6284323;27;96451;-70
2022/06/03 08:17:20;;;;;;;;;6.00;6.00;;;;;27.68;30.11;99446.13;6286176;27;96795;-71
2022/06/03 08:20:27;;;;;;;;;7.00;7.00;;;;;27.72;30.09;99449.88;6282443;27;98352;-70
2022/06/03 08:23:34;;;;;;;;;5.00;5.00;;;;;28.07;29.82;99439.69;6267360;27;96982;-72
2022/06/03 08:26:39;;;;;;;;;5.00;5.00;;;;;27.89;30.18;99430.56;6268708;27;98610;-71
2022/06/03 08:29:46;;;;;;;;;6.00;6.00;;;;;27.99;29.23;99444.09;6286449;27;97488;-71
2022/06/03 08:32:54;;;;;;;;;9.00;8.00;;;;;27.80;28.69;99440.81;6286734;27;96690;-71
2022/06/03 08:35:59;;;;;;;;;6.20;6.00;;;;;27.78;28.75;99456.91;6285043;27;96547;-71
2022/06/03 08:39:08;;;;;;;;;6.00;6.00;;;;;27.98;29.77;99448.00;6287318;27;97053;-71
2022/06/03 08:42:31;;;;;;;;;6.00;5.20;;;;;28.07;28.55;99436.94;6287785;27;96388;-71
2022/06/03 08:45:46;;;;;;;;;4.40;4.40;;;;;27.99;27.52;99443.28;6286796;27;96623;-71
2022/06/03 08:48:53;;;;;;;;;5.00;5.00;;;;;28.10;27.15;99444.59;6287653;27;96513;-70
2022/06/03 08:52:02;;;;;;;;;5.20;5.20;;;;;27.93;27.01;99434.31;6284946;27;96752;-70
2022/06/03 08:55:27;;;;;;;;;5.60;5.60;;;;;28.23;27.20;99435.38;6252691;27;97243;-72
2022/06/03 08:58:41;;;;;;;;;5.00;5.00;;;;;28.07;26.93;99439.69;6286074;27;97437;-70
2022/06/03 09:01:49;;;;;;;;;5.00;5.00;;;;;28.48;26.85;99441.25;6282271;27;96793;-72
2022/06/03 09:05:00;;;;;;;;;5.00;5.00;;;;;28.78;27.09;99434.75;6282640;27;96490;-71
2022/06/03 09:08:11;;;;;;;;;6.60;6.20;;;;;29.24;26.62;99422.84;6287261;27;97482;-72
2022/06/03 09:11:22;;;;;;;;;5.00;5.00;;;;;29.82;25.74;99432.41;6280150;27;99549;-71
2022/06/03 09:14:27;;;;;;;;;5.00;4.00;;;;;29.54;24.52;99421.78;6281213;27;96991;-70
2022/06/03 09:17:40;;;;;;;;;5.00;5.00;;;;;29.88;25.74;99419.97;6285721;27;97024;-71
2022/06/03 09:20:48;;;;;;;;;5.00;5.00;;;;;30.12;24.18;99420.16;6284892;27;98197;-70
2022/06/03 09:23:59;;;;;;;;;4.00;4.00;;;;;29.85;22.97;99429.81;6285609;27;96831;-72
2022/06/03 09:27:06;;;;;;;;;5.40;5.40;;;;;29.94;24.56;99413.09;6284206;27;99830;-71
2022/06/03 09:30:14;;;;;;;;;4.00;4.00;;;;;29.68;23.17;99424.31;6300113;27;98250;-71
2022/06/03 09:33:21;;;;;;;;;4.00;4.00;;;;;30.09;25.27;99412.50;6286237;27;97064;-71
2022/06/03 09:36:26;;;;;;;;;4.75;4.00;;;;;29.98;23.42;99409.31;6284239;27;96678;-69
2022/06/03 09:39:29;;;;;;;;;5.00;3.00;;;;;30.26;23.65;99417.09;6280393;27;97519;-71
2022/06/03 09:42:36;;;;;;;;;4.75;4.75;;;;;29.98;23.22;99417.66;6281534;27;97449;-71
2022/06/03 09:45:45;;;;;;;;;4.00;4.00;;;;;29.80;24.66;99410.53;6281749;27;97431;-71
2022/06/03 09:48:49;;;;;;;;;5.00;4.40;;;;;30.22;23.87;99407.81;6290157;27;97431;-72
2022/06/03 09:51:59;;;;;;;;;6.00;5.00;;;;;30.34;23.72;99424.59;6289363;27;97436;-72
2022/06/03 09:55:16;;;;;;;;;6.00;6.00;;;;;30.72;22.85;99411.34;6290446;27;97575;-72
2022/06/03 09:58:24;;;;;;;;;5.00;5.00;;;;;30.49;23.58;99412.88;6287995;27;97457;-71
2022/06/03 10:01:29;;;;;;;;;5.00;4.00;;;;;30.69;22.37;99414.00;6288245;27;97879;-72
2022/06/03 10:04:32;;;;;;;;;5.00;5.00;;;;;30.81;22.84;99398.16;6288554;27;97768;-71
2022/06/03 10:07:36;;;;;;;;;5.00;4.00;;;;;30.90;23.24;99403.63;6290370;27;96990;-71
2022/06/03 10:14:02;;;;;;;;;3.75;3.75;;;;;31.22;22.68;99404.78;6286528;27;97132;-72
2022/06/03 10:17:12;;;;;;;;;5.00;4.00;;;;;30.89;23.24;99396.41;6286746;27;98083;-72
2022/06/03 10:20:16;;;;;;;;;5.00;4.00;;;;;31.14;22.90;99398.13;6289724;27;97520;-72
2022/06/03 10:23:21;;;;;;;;;4.00;4.00;;;;;31.32;22.61;99395.97;6293842;27;98366;-70
2022/06/03 10:26:52;;;;;;;;;6.00;5.00;;;;;30.91;22.39;99400.50;6221771;27;97466;-71
2022/06/03 10:29:59;;;;;;;;;5.00;4.00;;;;;30.93;22.97;99392.63;6185885;28;96685;-70
2022/06/03 10:33:05;;;;;;;;;4.00;4.00;;;;;31.38;22.86;99375.06;6186021;28;97076;-72
2022/06/03 10:36:09;;;;;;;;;5.00;5.00;;;;;31.82;22.88;99376.13;6254171;27;96694;-71
2022/06/03 10:39:15;;;;;;;;;6.40;6.40;;;;;31.99;21.33;99384.22;6191034;27;97524;-71
2022/06/03 10:42:22;;;;;;;;;5.00;4.00;;;;;31.95;21.12;99385.28;6238233;27;99486;-72
2022/06/03 10:45:28;;;;;;;;;5.00;5.00;;;;;31.97;22.24;99382.94;6249489;27;97225;-72
2022/06/03 10:48:34;;;;;;;;;5.20;4.20;;;;;31.40;21.90;99375.53;6180846;28;97604;-71
2022/06/03 11:01:48;;;;;;;;;5.00;5.00;;;;;31.02;22.18;99341.63;6191835;27;96847;-72
2022/06/03 11:04:51;;;;;;;;;7.00;5.40;;;;;30.91;22.36;99355.13;6278766;27;97722;-72
2022/06/03 11:08:04;;;;;;;;;6.00;6.00;;;;;30.78;22.93;99311.72;6182610;28;98011;-72
2022/06/03 11:11:08;;;;;;;;;4.60;4.00;;;;;31.38;22.31;99349.97;6244558;27;98575;-72
2022/06/03 11:14:32;;;;;;;;;4.80;4.80;;;;;31.67;21.62;99365.66;6252516;27;98497;-72
2022/06/03 11:17:40;;;;;;;;;8.00;7.00;;;;;31.75;21.77;99346.06;6255819;27;98332;-71
2022/06/03 11:20:46;;;;;;;;;5.75;5.75;;;;;31.75;22.09;99343.25;6274366;27;97722;-70
2022/06/03 11:23:51;;;;;;;;;6.00;4.00;;;;;32.12;22.55;99354.34;6235516;27;96739;-71
2022/06/03 11:26:56;;;;;;;;;5.00;4.60;;;;;31.76;21.39;99349.66;6255719;27;96924;-71
2022/06/03 11:30:08;;;;;;;;;5.20;5.00;;;;;31.94;21.13;99339.03;6260646;27;96595;-70
2022/06/03 11:33:17;;;;;;;;;5.00;5.00;;;;;31.91;21.14;99331.38;6263099;27;97443;-72
2022/06/03 11:36:28;;;;;;;;;5.00;5.00;;;;;31.98;22.53;99328.78;6259318;27;97036;-70
2022/06/03 11:39:39;;;;;;;;;5.40;5.00;;;;;32.37;22.00;99305.66;6257852;27;96642;-72
2022/06/03 11:42:48;;;;;;;;;5.00;5.00;;;;;32.84;20.91;99327.31;6261954;27;96471;-70
2022/06/03 11:45:56;;;;;;;;;5.00;5.00;;;;;33.05;21.18;99319.47;6261312;27;97915;-72
2022/06/03 11:49:03;;;;;;;;;6.00;5.00;;;;;32.88;21.20;99320.66;6262130;27;96399;-71
2022/06/03 11:52:06;;;;;;;;;5.00;5.00;;;;;32.54;20.91;99313.72;6261416;27;97791;-71
2022/06/03 11:55:11;;;;;;;;;6.00;6.00;;;;;32.87;21.39;99315.41;6261949;27;96698;-70
2022/06/03 11:58:19;;;;;;;;;5.33;5.33;;;;;32.86;21.00;99309.00;6263096;27;97153;-71
2022/06/03 12:01:33;;;;;;;;;4.00;4.00;;;;;32.93;20.26;99306.44;6290085;27;96509;-71
2022/06/03 12:04:50;;;;;;;;;5.00;5.00;;;;;33.15;20.60;99302.16;6263227;27;97440;-72
2022/06/03 12:08:03;;;;;;;;;5.00;5.00;;;;;33.18;21.00;99297.88;6261521;27;96717;-71
2022/06/03 12:13:13;;;;;;;;;4.50;4.50;;;;;33.49;20.66;99290.25;6243020;27;96688;-72
2022/06/03 12:14:36;;;;;;;;;6.00;4.40;;;;;33.60;20.40;99282.09;6255766;27;96716;-71
2022/06/03 12:17:40;;;;;;;;;4.00;4.00;;;;;33.19;20.52;99286.31;6262056;27;97807;-72
2022/06/03 12:20:55;;;;;;;;;4.80;3.80;;;;;33.15;20.68;99279.00;6283988;27;97434;-71
2022/06/03 12:24:36;;;;;;;;;4.20;4.20;;;;;33.48;20.77;99274.66;6257341;27;98891;-71
2022/06/03 12:27:41;;;;;;;;;5.00;5.00;;;;;33.36;20.40;99260.81;6176903;28;97398;-71
2022/06/03 12:30:50;;;;;;;;;5.00;5.00;;;;;33.01;20.32;99268.28;6183404;27;97170;-71
2022/06/03 12:34:06;;;;;;;;;4.20;4.20;;;;;32.88;20.25;99259.22;6256397;27;100218;-71
2022/06/03 12:37:26;;;;;;;;;5.00;5.00;;;;;32.98;20.22;99258.66;6178814;28;97545;-71
2022/06/03 12:40:36;;;;;;;;;5.00;4.20;;;;;32.93;20.14;99250.56;6277602;27;97586;-70
2022/06/03 12:43:59;;;;;;;;;6.00;5.00;;;;;33.06;20.89;99242.88;6192291;27;97533;-71
2022/06/03 12:47:29;;;;;;;;;5.00;5.00;;;;;33.06;20.80;99229.72;6247283;27;97045;-71
2022/06/03 12:51:07;;;;;;;;;4.20;4.20;;;;;32.84;20.89;99235.94;6181251;28;97668;-72
2022/06/03 12:54:18;;;;;;;;;6.00;5.00;;;;;32.81;20.53;99235.88;6225413;27;97746;-71
2022/06/03 12:57:27;;;;;;;;;5.00;5.00;;;;;32.75;21.04;99226.13;6269350;27;97750;-71
2022/06/03 13:00:33;;;;;;;;;6.00;5.00;;;;;32.72;21.32;99222.09;6251586;27;96867;-72
2022/06/03 13:03:43;;;;;;;;;7.00;6.00;;;;;32.44;20.84;99210.97;6258111;27;96628;-72
2022/06/03 13:07:16;;;;;;;;;4.80;4.80;;;;;32.46;21.50;99214.22;6246620;27;97787;-72
2022/06/03 13:10:51;;;;;;;;;5.00;5.00;;;;;32.66;21.24;99204.78;6183109;28;97077;-72
2022/06/03 13:14:18;;;;;;;;;6.00;6.00;;;;;32.89;20.94;99195.78;6222100;27;99510;-72
2022/06/03 13:17:59;;;;;;;;;6.00;6.00;;;;;33.07;20.76;99199.81;6231843;27;96741;-71
2022/06/03 13:21:24;;;;;;;;;5.00;5.00;;;;;32.88;21.32;99194.97;6183163;27;98439;-72
2022/06/03 13:24:28;;;;;;;;;5.50;5.50;;;;;32.52;21.25;99175.69;6218628;27;97028;-71
2022/06/03 13:27:33;;;;;;;;;5.00;5.00;;;;;32.71;21.50;99186.16;6251384;27;97559;-72
2022/06/03 13:30:39;;;;;;;;;5.00;4.00;;;;;32.86;21.02;99188.13;6252092;27;98215;-72
2022/06/03 13:34:17;;;;;;;;;6.00;6.00;;;;;33.24;21.07;99179.06;6235661;27;97989;-71
2022/06/03 13:37:33;;;;;;;;;5.00;5.00;;;;;33.02;20.49;99174.94;6251580;27;98304;-72
2022/06/03 13:40:38;;;;;;;;;5.00;5.00;;;;;32.86;20.55;99176.94;6183289;28;97690;-71
2022/06/03 13:44:03;;;;;;;;;5.00;5.00;;;;;33.20;21.06;99180.97;6249384;27;98424;-72
2022/06/03 13:47:11;;;;;;;;;4.60;4.60;;;;;33.46;20.73;99173.59;6249998;27;97710;-73
2022/06/03 13:50:24;;;;;;;;;5.00;5.00;;;;;33.64;20.37;99168.34;6185890;28;96993;-71
2022/06/03 13:53:31;;;;;;;;;5.00;5.00;;;;;33.49;20.04;99169.22;6253324;27;97953;-71
2022/06/03 13:56:34;;;;;;;;;4.20;4.00;;;;;32.97;20.57;99166.84;6249588;27;96917;-71
2022/06/03 13:59:41;;;;;;;;;5.00;4.00;;;;;32.11;21.12;99135.16;6185818;28;97592;-71
2022/06/03 14:02:49;;;;;;;;;6.00;6.00;;;;;31.63;21.42;99145.38;6183811;28;97412;-71
2022/06/03 14:06:03;;;;;;;;;6.00;5.33;;;;;31.53;22.11;99147.81;6186779;27;97144;-71
2022/06/03 14:09:20;;;;;;;;;6.00;6.00;;;;;31.53;22.30;99145.03;6295837;27;98360;-72
2022/06/03 14:12:30;;;;;;;;;4.40;4.40;;;;;31.67;22.23;99135.13;6185425;28;96670;-70
2022/06/03 14:15:39;;;;;;;;;5.00;4.60;;;;;31.60;21.95;99140.50;6269847;27;96641;-72
2022/06/03 14:18:50;;;;;;;;;5.00;5.00;;;;;31.59;21.41;99143.63;6186666;28;96248;-70
2022/06/03 14:22:30;;;;;;;;;6.00;5.00;;;;;31.17;22.34;99130.06;6186353;27;96643;-70
2022/06/03 14:25:38;;;;;;;;;6.00;6.00;;;;;31.36;22.49;99115.50;6187284;27;97640;-72
2022/06/03 14:28:51;;;;;;;;;5.00;4.50;;;;;31.35;21.98;99123.03;6253407;27;98195;-70
2022/06/03 14:31:58;;;;;;;;;4.20;4.20;;;;;31.15;21.78;99092.56;6223728;27;97445;-71
2022/06/03 14:35:09;;;;;;;;;5.25;4.25;;;;;31.51;22.84;99127.88;6263750;27;97027;-71
2022/06/03 14:38:21;;;;;;;;;6.00;5.00;;;;;31.61;21.93;99116.25;6190732;27;96668;-71
2022/06/03 14:41:30;;;;;;;;;7.00;6.00;;;;;31.83;22.09;99116.47;6199631;27;96608;-72
2022/06/03 14:44:37;;;;;;;;;5.50;5.00;;;;;32.01;21.85;99114.13;6196883;27;97557;-71
2022/06/03 14:47:46;;;;;;;;;6.00;6.00;;;;;32.09;21.63;99109.56;6248890;27;96696;-72
2022/06/03 14:50:56;;;;;;;;;7.00;6.00;;;;;32.09;21.53;99087.25;6186138;27;97938;-73
2022/06/03 14:54:04;;;;;;;;;6.00;6.00;;;;;31.79;21.62;99109.97;6185466;28;96568;-73
2022/06/03 14:57:09;;;;;;;;;5.00;5.00;;;;;31.46;21.27;99098.28;6271487;27;99216;-72
2022/06/03 15:00:22;;;;;;;;;5.00;5.00;;;;;31.42;22.15;99089.00;6278722;27;96703;-71
2022/06/03 15:03:30;;;;;;;;;5.00;5.00;;;;;31.20;22.06;99095.09;6186240;27;97478;-71
2022/06/03 15:06:41;;;;;;;;;4.60;4.60;;;;;31.11;22.16;99089.69;6202113;27;96682;-71
2022/06/03 15:09:48;;;;;;;;;5.00;5.00;;;;;30.89;22.01;99065.09;6254628;27;100016;-72
2022/06/03 15:12:54;;;;;;;;;5.60;5.00;;;;;31.15;22.88;99076.69;6252904;27;99541;-71
2022/06/03 15:16:03;;;;;;;;;6.60;6.00;;;;;31.08;22.38;99076.47;6212012;27;96769;-70
2022/06/03 15:19:06;;;;;;;;;5.50;4.00;;;;;31.03;22.74;99059.22;6252606;27;96892;-71
2022/06/03 15:22:17;;;;;;;;;4.00;4.00;;;;;31.00;22.37;99057.88;6185109;28;97851;-71
2022/06/03 15:25:32;;;;;;;;;5.20;5.00;;;;;30.87;22.47;99067.44;6272699;27;96962;-72
2022/06/03 15:28:37;;;;;;;;;6.00;6.00;;;;;30.74;22.16;99068.66;6184701;27;97880;-72
2022/06/03 15:31:40;;;;;;;;;5.00;5.00;;;;;30.73;22.31;99053.91;6285760;27;96995;-71
2022/06/03 15:34:45;;;;;;;;;5.20;5.20;;;;;30.70;22.62;99053.78;6184359;28;97939;-71
2022/06/03 15:37:50;;;;;;;;;5.60;5.60;;;;;30.58;22.51;99046.28;6251330;27;98414;-71
2022/06/03 15:41:00;;;;;;;;;5.00;5.00;;;;;30.66;22.57;99045.31;6234343;27;98075;-71
2022/06/03 15:44:04;;;;;;;;;4.00;4.00;;;;;30.60;23.14;99046.72;6183820;28;96991;-72
2022/06/03 15:47:17;;;;;;;;;6.00;5.00;;;;;30.45;23.43;99050.19;6184520;27;96394;-72
2022/06/03 15:50:20;;;;;;;;;6.00;5.40;;;;;30.43;23.10;99061.69;6184865;28;96471;-71
2022/06/03 15:53:32;;;;;;;;;7.00;5.80;;;;;30.40;23.19;99051.22;6183975;28;96558;-71
2022/06/03 15:56:49;;;;;;;;;4.20;4.00;;;;;30.43;23.21;99047.78;6252386;27;97633;-72